Time;durP1;ratioP1;P1;durP2;ratioP2;P2;SDS_P1;SDS_P2;PMS_P1;PMS_P2;Temp;Humidity;BMP_temperature;BMP_pressure;BME280_temperature;BME280_humidity;BME280_pressure;Samples;Min_cycle;Max_cycle;Signal;HPM_P1;HPM_P2
2021/03/03 00:00:15;;;;;;;30.00;18.10;;;5.80;98.30;;;;;;5176953;22;20444;-80
2021/03/03 00:02:17;;;;;;;28.37;16.43;;;5.80;98.30;;;;;;5169086;22;20535;-80
2021/03/03 00:04:19;;;;;;;28.90;20.00;;;5.80;98.30;;;;;;5171196;22;20460;-80
2021/03/03 00:06:22;;;;;;;31.90;19.67;;;5.90;98.30;;;;;;5178361;22;21120;-80
2021/03/03 00:08:25;;;;;;;28.40;18.57;;;5.80;98.30;;;;;;5178509;22;20454;-80
2021/03/03 00:10:27;;;;;;;27.20;18.83;;;5.70;98.30;;;;;;5170434;22;20451;-80
2021/03/03 00:12:29;;;;;;;28.53;19.60;;;5.70;98.30;;;;;;5170372;22;20962;-80
2021/03/03 00:14:31;;;;;;;29.30;17.90;;;5.60;98.30;;;;;;5179289;22;20782;-80
2021/03/03 00:16:33;;;;;;;29.80;19.33;;;5.60;98.30;;;;;;5178700;22;20518;-80
2021/03/03 00:18:35;;;;;;;28.77;19.03;;;5.60;98.30;;;;;;5170093;22;20493;-81
2021/03/03 00:20:37;;;;;;;27.30;17.70;;;5.60;98.30;;;;;;5169954;22;20487;-80
2021/03/03 00:22:40;;;;;;;29.60;20.93;;;5.60;98.30;;;;;;5179489;22;20450;-80
2021/03/03 00:24:43;;;;;;;43.03;19.00;;;5.40;98.30;;;;;;5178698;22;20443;-80
2021/03/03 00:26:44;;;;;;;29.03;18.23;;;5.30;98.30;;;;;;5178533;22;20447;-80
2021/03/03 00:28:46;;;;;;;26.47;18.50;;;5.20;98.30;;;;;;5170823;22;20488;-80
2021/03/03 00:30:48;;;;;;;27.53;21.70;;;5.20;98.30;;;;;;5171142;22;20978;-80
2021/03/03 00:32:50;;;;;;;28.47;21.93;;;5.10;98.30;;;;;;5170874;22;20457;-80
2021/03/03 00:34:52;;;;;;;28.73;20.97;;;5.00;98.30;;;;;;5178977;22;20511;-80
2021/03/03 00:36:55;;;;;;;25.93;21.20;;;5.00;98.30;;;;;;5170839;22;20458;-80
2021/03/03 00:38:56;;;;;;;28.27;21.90;;;4.90;98.30;;;;;;5178144;22;20504;-80
2021/03/03 00:40:59;;;;;;;27.13;20.20;;;4.90;98.30;;;;;;5169923;22;20452;-80
2021/03/03 00:43:01;;;;;;;26.80;21.40;;;4.80;98.30;;;;;;5170971;22;20481;-80
2021/03/03 00:45:05;;;;;;;25.33;20.30;;;4.90;98.30;;;;;;5172078;22;20483;-80
2021/03/03 00:47:07;;;;;;;25.40;21.30;;;4.90;98.30;;;;;;5179866;22;20444;-80
2021/03/03 00:49:09;;;;;;;24.80;20.87;;;5.00;98.30;;;;;;5179154;22;20448;-80
2021/03/03 00:51:11;;;;;;;24.90;18.67;;;5.00;98.30;;;;;;5179232;22;20453;-80
2021/03/03 00:53:13;;;;;;;24.43;19.83;;;5.00;98.30;;;;;;5179328;22;20794;-80
2021/03/03 00:55:15;;;;;;;25.07;20.23;;;4.90;98.30;;;;;;5171990;22;20447;-80
2021/03/03 00:57:18;;;;;;;21.10;18.77;;;4.70;98.30;;;;;;5180562;22;20458;-79
2021/03/03 00:59:20;;;;;;;24.67;19.53;;;4.60;98.30;;;;;;5176553;22;20449;-79
2021/03/03 01:01:23;;;;;;;24.33;19.80;;;4.70;98.30;;;;;;5179515;22;20459;-79
2021/03/03 01:03:25;;;;;;;22.77;19.77;;;4.60;98.30;;;;;;5179738;22;20461;-79
2021/03/03 01:05:27;;;;;;;24.63;18.90;;;4.60;98.30;;;;;;5171164;22;20463;-81
2021/03/03 01:07:29;;;;;;;24.10;19.50;;;4.40;98.30;;;;;;5177120;22;20828;-81
2021/03/03 01:09:31;;;;;;;24.30;19.85;;;4.30;98.30;;;;;;5176935;22;20474;-80
2021/03/03 01:11:33;;;;;;;19.93;16.60;;;4.30;98.30;;;;;;5169008;22;20206;-80
2021/03/03 01:13:37;;;;;;;25.08;19.90;;;4.30;98.30;;;;;;5169047;22;20451;-81
2021/03/03 01:15:39;;;;;;;22.70;19.40;;;4.20;98.30;;;;;;5176049;22;20252;-81
2021/03/03 01:17:41;;;;;;;25.77;21.07;;;4.20;98.30;;;;;;5176985;22;20205;-81
2021/03/03 01:19:43;;;;;;;26.40;18.77;;;4.30;98.30;;;;;;5176390;22;20448;-81
2021/03/03 01:21:45;;;;;;;24.10;19.17;;;4.50;98.30;;;;;;5169099;22;20456;-81
2021/03/03 01:23:47;;;;;;;23.80;18.13;;;4.70;98.30;;;;;;5168719;22;20451;-81
2021/03/03 01:25:49;;;;;;;21.98;18.27;;;4.90;98.30;;;;;;5176151;22;20453;-81
2021/03/03 01:27:51;;;;;;;21.70;18.97;;;4.90;98.30;;;;;;5168530;22;20215;-80
2021/03/03 01:29:54;;;;;;;20.17;18.00;;;4.70;98.30;;;;;;5167355;22;20479;-81
2021/03/03 01:31:56;;;;;;;21.73;19.40;;;4.70;98.30;;;;;;5175869;22;20444;-81
2021/03/03 01:33:58;;;;;;;23.33;18.07;;;4.80;98.30;;;;;;5175229;22;20444;-81
2021/03/03 01:36:00;;;;;;;24.73;18.83;;;4.70;98.30;;;;;;5166917;22;20457;-81
2021/03/03 01:38:02;;;;;;;22.30;19.33;;;4.60;98.30;;;;;;5166799;22;20510;-80
2021/03/03 01:40:05;;;;;;;22.73;19.50;;;4.50;98.30;;;;;;5166919;22;20460;-80
2021/03/03 01:42:07;;;;;;;22.23;19.40;;;4.50;98.30;;;;;;5176157;22;21013;-80
2021/03/03 01:44:09;;;;;;;22.77;18.52;;;4.40;98.30;;;;;;5175372;22;20962;-80
2021/03/03 01:46:11;;;;;;;19.50;17.20;;;4.40;98.30;;;;;;5166878;22;20236;-80
2021/03/03 01:48:14;;;;;;;21.57;18.90;;;4.40;98.30;;;;;;5174676;22;20452;-81
2021/03/03 01:50:16;;;;;;;22.40;17.67;;;4.40;98.30;;;;;;5174704;22;20531;-80
2021/03/03 01:52:18;;;;;;;23.03;17.77;;;4.40;98.30;;;;;;5175134;22;20475;-81
2021/03/03 01:54:20;;;;;;;21.03;16.27;;;4.40;98.30;;;;;;5166967;22;20522;-81
2021/03/03 01:56:22;;;;;;;23.00;18.80;;;4.40;98.30;;;;;;5167279;22;20467;-81
2021/03/03 01:58:25;;;;;;;20.70;18.50;;;4.60;98.30;;;;;;5167023;22;20462;-80
2021/03/03 02:00:27;;;;;;;19.57;16.77;;;4.60;98.30;;;;;;5175110;22;20949;-81
2021/03/03 02:02:29;;;;;;;21.33;18.90;;;4.70;98.30;;;;;;5164635;22;20741;-81
2021/03/03 02:04:32;;;;;;;20.03;16.47;;;4.70;98.30;;;;;;5174927;22;20842;-81
2021/03/03 02:06:40;;;;;;;22.07;18.30;;;4.60;98.30;;;;;;5167209;22;20460;-82
2021/03/03 02:08:46;;;;;;;24.30;17.37;;;4.50;98.30;;;;;;5167008;22;20456;-80
2021/03/03 02:10:57;;;;;;;20.93;18.60;;;4.50;98.30;;;;;;5166631;22;20474;-80
2021/03/03 02:13:04;;;;;;;23.07;18.83;;;4.30;98.30;;;;;;5166681;22;20495;-80
2021/03/03 02:15:08;;;;;;;23.67;19.03;;;4.20;98.30;;;;;;5175473;23;20519;-80
2021/03/03 02:17:10;;;;;;;22.47;18.67;;;4.20;98.30;;;;;;5166254;22;20543;-80
2021/03/03 02:19:20;;;;;;;22.07;17.70;;;3.90;98.30;;;;;;5165993;22;20977;-81
2021/03/03 02:21:30;;;;;;;25.50;17.58;;;3.90;98.30;;;;;;5167146;22;20462;-81
2021/03/03 02:23:44;;;;;;;21.30;17.70;;;4.00;98.30;;;;;;5175075;22;20211;-81
2021/03/03 02:25:52;;;;;;;21.10;18.90;;;4.00;98.30;;;;;;5175358;22;20451;-81
2021/03/03 02:27:55;;;;;;;20.80;18.50;;;3.90;98.30;;;;;;5177066;22;20439;-81
2021/03/03 02:30:00;;;;;;;21.15;17.98;;;3.90;98.30;;;;;;5167389;22;20465;-81
2021/03/03 02:32:03;;;;;;;21.35;18.55;;;3.90;98.30;;;;;;5176998;22;20240;-81
2021/03/03 02:34:06;;;;;;;20.05;16.08;;;4.00;98.30;;;;;;5177090;22;20197;-81
2021/03/03 02:36:09;;;;;;;20.95;18.13;;;4.10;98.30;;;;;;5166344;22;20206;-81
2021/03/03 02:38:12;;;;;;;19.42;16.88;;;4.20;98.30;;;;;;5176524;22;20193;-80
2021/03/03 02:40:16;;;;;;;18.55;16.55;;;4.20;98.30;;;;;;5167297;22;20763;-80
2021/03/03 02:42:21;;;;;;;19.48;17.35;;;4.30;98.30;;;;;;5168048;22;21022;-80
2021/03/03 02:44:24;;;;;;;21.60;17.73;;;4.30;98.30;;;;;;5176540;22;20271;-80
2021/03/03 02:46:27;;;;;;;19.50;17.42;;;4.20;98.30;;;;;;5176677;22;20217;-80
2021/03/03 02:48:29;;;;;;;17.95;16.13;;;4.20;98.30;;;;;;5176485;22;20201;-80
2021/03/03 02:50:31;;;;;;;22.38;18.30;;;4.20;98.30;;;;;;5167139;22;20208;-80
2021/03/03 02:52:50;;;;;;;20.05;17.38;;;4.00;98.30;;;;;;5167027;23;20672;-80
2021/03/03 02:54:52;;;;;;;20.48;17.60;;;4.00;98.30;;;;;;5167772;22;20205;-81
2021/03/03 02:56:56;;;;;;;18.83;16.55;;;3.90;98.30;;;;;;5167651;22;20204;-81
2021/03/03 02:59:02;;;;;;;23.48;17.80;;;3.70;98.30;;;;;;5167251;22;20770;-81
2021/03/03 03:01:11;;;;;;;20.70;17.25;;;3.70;98.30;;;;;;5165990;22;20617;-81
2021/03/03 03:03:23;;;;;;;19.90;17.75;;;3.60;98.30;;;;;;5167885;22;20204;-80
2021/03/03 03:05:27;;;;;;;21.30;17.73;;;3.60;98.30;;;;;;5167297;22;20204;-80
2021/03/03 03:07:31;;;;;;;20.73;18.50;;;3.60;98.30;;;;;;5175366;22;20276;-80
2021/03/03 03:09:34;;;;;;;19.30;17.27;;;3.60;98.30;;;;;;5167384;22;20205;-80
2021/03/03 03:11:42;;;;;;;20.13;17.58;;;3.60;98.30;;;;;;5176289;22;20222;-80
2021/03/03 03:13:46;;;;;;;18.73;16.83;;;3.50;98.30;;;;;;5176548;22;20239;-81
2021/03/03 03:15:50;;;;;;;20.17;17.15;;;3.60;98.30;;;;;;5168146;22;20236;-81
2021/03/03 03:17:58;;;;;;;20.30;18.15;;;3.60;98.30;;;;;;5176130;22;20296;-80
2021/03/03 03:20:03;;;;;;;19.15;17.10;;;3.70;98.30;;;;;;5167216;22;20219;-80
2021/03/03 03:22:08;;;;;;;18.70;16.80;;;3.80;98.30;;;;;;5167559;22;20311;-81
2021/03/03 03:24:12;;;;;;;19.45;17.42;;;3.80;98.30;;;;;;5169702;22;20232;-80
2021/03/03 03:26:15;;;;;;;25.27;20.80;;;3.70;98.30;;;;;;5170394;22;20328;-80
2021/03/03 03:28:18;;;;;;;45.47;32.58;;;3.60;98.30;;;;;;5170099;22;20706;-81
2021/03/03 03:30:21;;;;;;;50.35;35.35;;;3.60;98.30;;;;;;5170187;22;20204;-80
2021/03/03 03:32:24;;;;;;;43.50;30.00;;;3.60;98.30;;;;;;5179288;22;20272;-81
2021/03/03 03:34:27;;;;;;;22.23;19.27;;;3.30;98.30;;;;;;5170177;22;20224;-81
2021/03/03 03:36:31;;;;;;;19.83;17.83;;;3.10;98.30;;;;;;5178580;22;20728;-81
2021/03/03 03:38:34;;;;;;;21.38;16.75;;;3.10;98.30;;;;;;5176800;22;20787;-81
2021/03/03 03:40:36;;;;;;;20.88;17.63;;;3.10;98.30;;;;;;5175747;22;20284;-81
2021/03/03 03:42:40;;;;;;;19.63;17.52;;;3.20;98.30;;;;;;5176477;22;20208;-81
2021/03/03 03:44:43;;;;;;;36.30;27.17;;;3.20;98.30;;;;;;5167776;22;20209;-80
2021/03/03 03:46:46;;;;;;;191.30;124.20;;;3.10;98.30;;;;;;5176742;22;20344;-81
2021/03/03 03:48:50;;;;;;;96.10;66.28;;;3.20;98.30;;;;;;5167029;22;20205;-81
2021/03/03 03:50:52;;;;;;;38.60;29.98;;;3.40;98.30;;;;;;5176935;22;20253;-80
2021/03/03 03:52:55;;;;;;;21.75;19.17;;;3.40;98.30;;;;;;5175803;22;20220;-81
2021/03/03 03:54:57;;;;;;;19.42;17.20;;;3.50;98.30;;;;;;5167905;22;20279;-81
2021/03/03 03:56:59;;;;;;;20.45;18.38;;;3.40;98.30;;;;;;5176462;22;20304;-80
2021/03/03 03:59:01;;;;;;;21.98;17.20;;;3.40;98.30;;;;;;5167579;22;20315;-81
2021/03/03 04:01:03;;;;;;;19.85;16.80;;;3.40;98.30;;;;;;5168648;22;20209;-80
2021/03/03 04:03:06;;;;;;;19.00;17.00;;;3.40;98.30;;;;;;5176814;22;20205;-80
2021/03/03 04:05:10;;;;;;;20.40;18.30;;;3.30;98.30;;;;;;5176627;22;20615;-80
2021/03/03 04:07:12;;;;;;;18.10;16.30;;;3.20;98.30;;;;;;5168706;22;20201;-81
2021/03/03 04:09:14;;;;;;;43.03;33.65;;;3.20;98.30;;;;;;5167376;22;20209;-80
2021/03/03 04:11:16;;;;;;;43.67;32.38;;;3.10;98.30;;;;;;5167726;22;20207;-81
2021/03/03 04:13:18;;;;;;;85.88;52.60;;;3.00;98.30;;;;;;5176854;22;20197;-81
2021/03/03 04:15:20;;;;;;;86.47;56.63;;;3.10;98.30;;;;;;5177195;22;20252;-80
2021/03/03 04:17:22;;;;;;;32.67;24.65;;;3.20;98.30;;;;;;5167741;22;20751;-80
2021/03/03 04:19:24;;;;;;;20.08;17.95;;;3.20;98.30;;;;;;5175659;23;20204;-80
2021/03/03 04:21:27;;;;;;;20.45;18.15;;;3.10;98.30;;;;;;5168646;22;20232;-80
2021/03/03 04:23:28;;;;;;;19.73;17.63;;;3.20;98.30;;;;;;5168519;22;20716;-80
2021/03/03 04:28:45;;;;;;;25.13;20.98;;;3.20;98.30;;;;;;5118468;22;20179;-83
2021/03/03 04:30:47;;;;;;;22.83;19.30;;;3.10;98.30;;;;;;5168334;22;20280;-81
2021/03/03 04:32:50;;;;;;;20.45;18.40;;;3.10;98.30;;;;;;5170609;22;20209;-80
2021/03/03 04:34:52;;;;;;;20.08;17.98;;;3.20;98.30;;;;;;5173375;22;20224;-79
2021/03/03 04:36:54;;;;;;;21.83;19.52;;;2.90;98.30;;;;;;5182755;22;20224;-80
2021/03/03 04:38:56;;;;;;;21.08;18.33;;;2.80;98.30;;;;;;5184935;22;20787;-80
2021/03/03 04:40:58;;;;;;;24.67;20.42;;;2.70;98.30;;;;;;5168353;22;20240;-81
2021/03/03 04:43:00;;;;;;;23.58;20.45;;;2.50;98.30;;;;;;5176467;22;20288;-81
2021/03/03 04:45:04;;;;;;;23.33;20.50;;;2.40;98.30;;;;;;5167884;22;20258;-81
2021/03/03 04:47:06;;;;;;;27.25;22.55;;;2.30;98.30;;;;;;5175957;22;20213;-80
2021/03/03 04:49:08;;;;;;;32.63;23.67;;;2.30;98.30;;;;;;5167296;22;20240;-81
2021/03/03 04:51:10;;;;;;;31.48;23.13;;;2.30;98.30;;;;;;5176442;22;20211;-80
2021/03/03 04:53:13;;;;;;;30.60;23.70;;;2.20;98.30;;;;;;5166949;22;20209;-81
2021/03/03 04:55:15;;;;;;;26.95;21.40;;;2.20;98.30;;;;;;5176178;22;20240;-80
2021/03/03 04:57:17;;;;;;;35.03;24.75;;;2.30;98.30;;;;;;5167117;22;20283;-80
2021/03/03 04:59:19;;;;;;;48.33;23.90;;;2.30;98.30;;;;;;5175799;22;20205;-80
2021/03/03 05:01:21;;;;;;;70.95;25.30;;;2.40;98.30;;;;;;5167885;22;20292;-80
2021/03/03 05:03:24;;;;;;;45.30;24.35;;;2.30;98.30;;;;;;5167697;22;20205;-81
2021/03/03 05:05:26;;;;;;;54.33;25.92;;;2.20;98.30;;;;;;5167322;22;20201;-81
2021/03/03 05:07:27;;;;;;;46.47;24.13;;;2.10;98.30;;;;;;5167756;22;20204;-80
2021/03/03 05:09:30;;;;;;;36.88;23.02;;;2.00;98.30;;;;;;5175548;22;20648;-81
2021/03/03 05:11:32;;;;;;;39.65;22.55;;;2.00;98.30;;;;;;5167006;22;20204;-81
2021/03/03 05:13:35;;;;;;;36.90;22.92;;;2.30;98.30;;;;;;5176370;22;20288;-81
2021/03/03 05:15:36;;;;;;;34.47;21.88;;;2.40;98.30;;;;;;5167100;22;20209;-81
2021/03/03 05:17:39;;;;;;;29.35;21.88;;;2.50;98.30;;;;;;5167037;22;20255;-81
2021/03/03 05:19:41;;;;;;;29.80;21.00;;;2.60;98.30;;;;;;5175869;22;20280;-81
2021/03/03 05:21:43;;;;;;;28.17;20.75;;;2.50;98.30;;;;;;5176488;22;20205;-81
2021/03/03 05:23:45;;;;;;;28.73;22.45;;;2.60;98.30;;;;;;5167111;22;20787;-81
2021/03/03 05:25:48;;;;;;;31.27;20.48;;;2.70;98.30;;;;;;5175475;22;20239;-81
2021/03/03 05:27:50;;;;;;;26.55;21.13;;;2.80;98.30;;;;;;5167168;22;20775;-79
2021/03/03 05:29:52;;;;;;;29.17;21.05;;;2.80;98.30;;;;;;5174272;22;20222;-80
2021/03/03 05:31:54;;;;;;;37.05;21.55;;;2.80;98.30;;;;;;5166619;22;20205;-80
2021/03/03 05:33:56;;;;;;;46.25;21.33;;;2.80;98.30;;;;;;5167090;22;20201;-80
2021/03/03 05:36:02;;;;;;;30.52;20.17;;;2.80;98.30;;;;;;5175125;22;20205;-80
2021/03/03 05:38:04;;;;;;;40.03;21.33;;;2.60;98.30;;;;;;5166923;22;20279;-80
2021/03/03 05:40:08;;;;;;;40.72;22.95;;;2.50;98.30;;;;;;5178010;22;20208;-81
2021/03/03 05:42:10;;;;;;;59.00;23.75;;;2.60;98.30;;;;;;5183327;22;20295;-80
2021/03/03 05:44:12;;;;;;;70.57;23.92;;;2.70;98.30;;;;;;5173942;22;20207;-79
2021/03/03 05:46:15;;;;;;;54.80;24.65;;;2.40;98.30;;;;;;5177154;22;20719;-79
2021/03/03 05:48:24;;;;;;;111.72;27.02;;;2.30;98.30;;;;;;5173470;22;20257;-79
2021/03/03 05:50:33;;;;;;;89.93;26.50;;;2.30;98.30;;;;;;5173345;22;20524;-79
2021/03/03 05:52:36;;;;;;;175.63;29.33;;;2.20;98.30;;;;;;5179228;22;20205;-79
2021/03/03 05:54:39;;;;;;;70.30;26.70;;;2.10;98.30;;;;;;5172153;22;20208;-80
2021/03/03 05:56:43;;;;;;;201.25;30.42;;;2.20;98.30;;;;;;5172355;22;20217;-79
2021/03/03 05:58:46;;;;;;;126.88;28.40;;;2.00;98.30;;;;;;5172316;22;20205;-79
2021/03/03 06:00:49;;;;;;;82.30;24.65;;;1.80;98.30;;;;;;5172116;22;20288;-80
2021/03/03 06:02:51;;;;;;;63.83;23.67;;;1.60;98.30;;;;;;5172775;23;20335;-79
2021/03/03 06:04:54;;;;;;;70.97;22.75;;;1.50;98.30;;;;;;5180343;22;20204;-79
2021/03/03 06:06:56;;;;;;;94.53;24.38;;;1.60;98.30;;;;;;5172347;22;20295;-79
2021/03/03 06:08:58;;;;;;;59.97;22.75;;;1.50;98.30;;;;;;5170379;22;20236;-80
2021/03/03 06:11:08;;;;;;;73.72;21.02;;;1.50;98.30;;;;;;5170400;22;20279;-79
2021/03/03 06:13:11;;;;;;;64.47;21.23;;;1.60;98.30;;;;;;5171413;22;20244;-80
2021/03/03 06:15:16;;;;;;;50.20;21.00;;;1.70;98.30;;;;;;5171804;22;20228;-79
2021/03/03 06:17:18;;;;;;;82.97;22.42;;;1.70;98.30;;;;;;5180023;22;20196;-79
2021/03/03 06:19:21;;;;;;;45.50;20.00;;;1.70;98.30;;;;;;5179634;23;20809;-80
2021/03/03 06:21:27;;;;;;;60.13;20.50;;;1.70;98.30;;;;;;5172377;22;20695;-79
2021/03/03 06:23:30;;;;;;;58.88;20.92;;;1.90;98.30;;;;;;5170080;22;20288;-80
2021/03/03 06:25:32;;;;;;;32.40;21.13;;;2.00;98.30;;;;;;5169627;22;20544;-79
2021/03/03 06:27:38;;;;;;;56.90;19.75;;;2.00;98.30;;;;;;5169218;22;20209;-79
2021/03/03 06:29:40;;;;;;;81.47;22.17;;;1.90;98.30;;;;;;5168417;22;20305;-79
2021/03/03 06:31:44;;;;;;;53.92;19.80;;;1.90;98.30;;;;;;5169826;22;20235;-80
2021/03/03 06:33:46;;;;;;;36.40;20.80;;;1.80;98.30;;;;;;5170223;22;20208;-79
2021/03/03 06:35:48;;;;;;;58.70;20.50;;;1.70;98.30;;;;;;5171398;22;20205;-79
2021/03/03 06:37:54;;;;;;;67.30;22.08;;;1.90;98.30;;;;;;5172166;22;20509;-79
2021/03/03 06:40:08;;;;;;;57.20;20.90;;;1.90;98.30;;;;;;5171064;22;20697;-79
2021/03/03 06:42:24;;;;;;;35.40;19.55;;;1.90;98.30;;;;;;5171442;22;20589;-80
2021/03/03 06:44:45;;;;;;;44.25;21.17;;;1.80;98.30;;;;;;5169702;22;20300;-79
2021/03/03 06:47:06;;;;;;;42.33;20.77;;;1.90;98.30;;;;;;5179407;22;20580;-79
2021/03/03 06:49:21;;;;;;;51.42;22.00;;;1.80;98.30;;;;;;5169691;22;20227;-79
2021/03/03 06:51:26;;;;;;;61.88;21.67;;;1.80;98.30;;;;;;5170430;22;20205;-79
2021/03/03 06:53:32;;;;;;;128.27;25.40;;;1.80;98.30;;;;;;5178869;22;20201;-79
2021/03/03 06:55:47;;;;;;;127.65;24.92;;;1.90;98.30;;;;;;5170424;22;20211;-79
2021/03/03 06:57:49;;;;;;;111.95;25.05;;;2.00;98.30;;;;;;5179740;22;20276;-79
2021/03/03 06:59:51;;;;;;;112.38;25.00;;;2.10;98.30;;;;;;5169907;22;20205;-79
2021/03/03 07:01:55;;;;;;;53.33;22.55;;;2.10;98.30;;;;;;5171131;22;20204;-80
2021/03/03 07:03:58;;;;;;;85.53;25.30;;;2.00;98.30;;;;;;5171415;22;20212;-80
2021/03/03 07:06:01;;;;;;;93.00;27.20;;;2.00;98.30;;;;;;5172139;22;20209;-80
2021/03/03 07:08:04;;;;;;;97.78;26.13;;;2.00;98.30;;;;;;5180251;22;20211;-80
2021/03/03 07:10:08;;;;;;;104.88;27.63;;;1.90;98.30;;;;;;5179108;22;20205;-79
2021/03/03 07:12:12;;;;;;;60.30;23.42;;;1.80;98.30;;;;;;5179725;22;20285;-79
2021/03/03 07:14:18;;;;;;;55.05;24.95;;;1.80;98.30;;;;;;5180467;22;20201;-80
2021/03/03 07:16:20;;;;;;;62.95;23.65;;;1.90;98.30;;;;;;5171906;22;20261;-79
2021/03/03 07:18:34;;;;;;;129.68;27.00;;;2.10;98.30;;;;;;5180999;22;20205;-79
2021/03/03 07:20:45;;;;;;;62.60;21.58;;;2.10;98.30;;;;;;5179276;22;20201;-79
2021/03/03 07:22:49;;;;;;;119.68;25.38;;;2.20;98.30;;;;;;5170836;22;20205;-79
2021/03/03 07:24:52;;;;;;;139.75;26.50;;;2.30;98.30;;;;;;5179799;22;20216;-79
2021/03/03 07:26:55;;;;;;;55.97;20.88;;;2.30;98.30;;;;;;5180320;22;20207;-79
2021/03/03 07:28:58;;;;;;;79.05;24.00;;;2.30;98.30;;;;;;5172235;22;20212;-80
2021/03/03 07:31:00;;;;;;;103.30;23.55;;;2.30;98.30;;;;;;5172315;22;20205;-79
2021/03/03 07:33:03;;;;;;;54.95;21.48;;;2.40;98.30;;;;;;5180022;22;20527;-80
2021/03/03 07:35:11;;;;;;;150.88;25.45;;;2.30;98.30;;;;;;5170801;22;20280;-79
2021/03/03 07:37:15;;;;;;;151.65;24.60;;;2.50;98.30;;;;;;5178616;22;20284;-79
2021/03/03 07:39:19;;;;;;;50.50;21.23;;;2.50;98.30;;;;;;5170379;22;20209;-79
2021/03/03 07:41:25;;;;;;;70.05;23.00;;;2.70;98.30;;;;;;5180286;22;20197;-80
2021/03/03 07:43:30;;;;;;;109.18;25.30;;;2.60;98.30;;;;;;5181151;22;20224;-80
2021/03/03 07:45:37;;;;;;;84.45;23.73;;;2.60;98.30;;;;;;5180028;22;20232;-80
2021/03/03 07:47:41;;;;;;;129.55;26.45;;;2.60;98.30;;;;;;5180479;22;20207;-79
2021/03/03 07:49:45;;;;;;;56.15;22.00;;;2.60;98.30;;;;;;5171804;22;20201;-79
2021/03/03 07:51:48;;;;;;;53.63;21.52;;;2.70;98.30;;;;;;5172073;22;20216;-80
2021/03/03 07:53:51;;;;;;;88.35;25.80;;;2.80;98.30;;;;;;5172163;22;20201;-79
2021/03/03 07:55:58;;;;;;;103.35;25.85;;;2.90;98.30;;;;;;5172360;22;20205;-80
2021/03/03 07:58:00;;;;;;;115.38;25.85;;;3.00;98.30;;;;;;5179970;22;20197;-79
2021/03/03 08:00:06;;;;;;;84.47;25.55;;;2.90;98.30;;;;;;5171504;22;20316;-79
2021/03/03 08:02:09;;;;;;;92.55;27.00;;;3.00;98.30;;;;;;5181166;22;20256;-79
2021/03/03 08:04:35;;;;;;;74.72;24.85;;;3.00;98.30;;;;;;5177457;22;20216;-77
2021/03/03 08:06:39;;;;;;;103.80;24.90;;;3.30;98.30;;;;;;5177712;22;20949;-79
2021/03/03 08:08:41;;;;;;;53.70;24.15;;;3.30;98.30;;;;;;5171247;22;20213;-80
2021/03/03 08:10:44;;;;;;;64.45;23.90;;;3.50;98.30;;;;;;5179044;22;20212;-80
2021/03/03 08:12:57;;;;;;;89.28;23.75;;;3.60;98.30;;;;;;5180445;22;20654;-80
2021/03/03 08:14:59;;;;;;;52.92;21.50;;;3.70;98.30;;;;;;5175563;22;20299;-80
2021/03/03 08:17:03;;;;;;;72.25;23.00;;;3.90;98.30;;;;;;5170386;22;20217;-80
2021/03/03 08:19:05;;;;;;;125.03;25.38;;;4.20;98.30;;;;;;5177597;22;20671;-81
2021/03/03 08:21:28;;;;;;;103.15;24.15;;;4.10;98.30;;;;;;5168478;22;20204;-80
2021/03/03 08:23:47;;;;;;;59.95;24.33;;;4.10;98.30;;;;;;5176709;22;20697;-80
2021/03/03 08:25:51;;;;;;;44.83;22.75;;;4.20;98.30;;;;;;5177000;22;20260;-81
2021/03/03 08:27:54;;;;;;;57.78;20.65;;;4.30;98.30;;;;;;5169201;22;20229;-81
2021/03/03 08:30:18;;;;;;;65.73;22.27;;;4.40;98.30;;;;;;5176108;22;20212;-81
2021/03/03 08:32:25;;;;;;;60.83;25.48;;;4.40;98.30;;;;;;5168231;23;20520;-80
2021/03/03 08:34:54;;;;;;;81.57;23.33;;;4.30;98.30;;;;;;5167767;22;20300;-81
2021/03/03 08:37:00;;;;;;;53.07;25.17;;;4.20;98.30;;;;;;5167281;22;20205;-81
2021/03/03 08:39:41;;;;;;;68.80;25.37;;;4.70;98.30;;;;;;5168114;22;20723;-81
2021/03/03 08:41:42;;;;;;;50.17;29.63;;;5.10;98.30;;;;;;5176405;22;21033;-81
2021/03/03 08:43:46;;;;;;;57.70;23.80;;;5.10;98.30;;;;;;5176430;22;20812;-81
2021/03/03 08:45:48;;;;;;;47.87;21.77;;;5.10;98.30;;;;;;5167223;22;20457;-81
2021/03/03 08:47:57;;;;;;;36.83;21.93;;;5.00;98.30;;;;;;5176224;22;20960;-81
2021/03/03 08:50:31;;;;;;;50.30;23.90;;;5.10;98.30;;;;;;5167269;22;20454;-81
2021/03/03 08:52:34;;;;;;;49.87;25.90;;;5.20;98.30;;;;;;5167712;22;20508;-82
2021/03/03 08:54:43;;;;;;;63.43;30.10;;;5.50;98.30;;;;;;5176220;22;20496;-81
2021/03/03 08:56:47;;;;;;;66.90;30.93;;;5.60;98.30;;;;;;5175793;22;20443;-81
2021/03/03 08:58:50;;;;;;;62.30;33.97;;;5.90;98.30;;;;;;5167997;22;20550;-82
2021/03/03 09:00:53;;;;;;;51.37;27.30;;;6.20;98.30;;;;;;5176039;22;21016;-81
2021/03/03 09:02:55;;;;;;;49.93;28.10;;;6.30;98.30;;;;;;5167896;22;20965;-82
2021/03/03 09:04:57;;;;;;;45.20;26.13;;;6.30;98.30;;;;;;5167499;22;20459;-81
2021/03/03 09:07:03;;;;;;;50.23;26.27;;;6.50;98.30;;;;;;5167483;22;20452;-81
2021/03/03 09:09:05;;;;;;;44.13;24.00;;;6.60;98.30;;;;;;5167692;22;20460;-81
2021/03/03 09:11:16;;;;;;;52.47;26.30;;;6.80;98.30;;;;;;5168128;22;20454;-81
2021/03/03 09:13:22;;;;;;;50.27;25.80;;;7.20;98.30;;;;;;5167479;22;20966;-81
2021/03/03 09:15:24;;;;;;;61.60;34.70;;;7.70;98.30;;;;;;5167039;22;20426;-81
2021/03/03 09:17:28;;;;;;;67.43;34.47;;;8.10;98.30;;;;;;5176567;22;20838;-82
2021/03/03 09:19:32;;;;;;;66.53;30.30;;;8.60;98.30;;;;;;5167558;22;20501;-81
2021/03/03 09:21:35;;;;;;;52.13;31.43;;;8.90;98.30;;;;;;5168490;22;20481;-82
2021/03/03 09:23:39;;;;;;;52.90;28.83;;;9.30;98.30;;;;;;5176968;22;20500;-82
2021/03/03 09:25:41;;;;;;;45.40;28.17;;;9.40;98.30;;;;;;5166763;22;20461;-82
2021/03/03 09:27:49;;;;;;;52.03;29.47;;;9.50;98.30;;;;;;5167250;22;20554;-81
2021/03/03 09:29:51;;;;;;;44.57;25.03;;;9.50;98.30;;;;;;5167236;22;20428;-82
2021/03/03 09:31:53;;;;;;;39.43;23.23;;;9.60;98.30;;;;;;5167486;22;20452;-82
2021/03/03 09:33:55;;;;;;;37.63;24.27;;;9.40;98.30;;;;;;5167233;22;20457;-81
2021/03/03 09:35:58;;;;;;;42.50;26.73;;;9.30;98.30;;;;;;5167478;22;20470;-82
2021/03/03 09:38:01;;;;;;;38.33;24.60;;;9.50;98.30;;;;;;5167464;22;20463;-82
2021/03/03 09:40:07;;;;;;;44.80;23.43;;;9.90;98.30;;;;;;5167990;22;20454;-81
2021/03/03 09:42:11;;;;;;;86.50;44.50;;;10.40;98.30;;;;;;5175648;22;20454;-81
2021/03/03 09:44:16;;;;;;;87.13;46.97;;;10.60;98.30;;;;;;5175580;22;20444;-82
2021/03/03 09:46:19;;;;;;;42.60;27.60;;;10.70;98.30;;;;;;5168268;22;20486;-82
2021/03/03 09:48:27;;;;;;;38.87;26.17;;;10.70;98.30;;;;;;5167713;22;20528;-81
2021/03/03 09:50:30;;;;;;;40.87;23.83;;;11.10;98.30;;;;;;5176457;22;20454;-81
2021/03/03 09:52:38;;;;;;;45.40;27.17;;;11.30;98.30;;;;;;5176870;22;21284;-82
2021/03/03 09:54:40;;;;;;;45.23;26.03;;;11.80;98.30;;;;;;5167689;22;20455;-82
2021/03/03 09:56:44;;;;;;;34.93;22.93;;;12.20;98.30;;;;;;5178138;22;20444;-81
2021/03/03 09:58:52;;;;;;;34.40;21.97;;;12.20;98.30;;;;;;5172967;22;20451;-82
2021/03/03 10:00:54;;;;;;;51.27;29.17;;;12.00;98.30;;;;;;5168676;22;21001;-81
2021/03/03 10:02:59;;;;;;;58.87;38.67;;;12.10;98.30;;;;;;5175403;22;20452;-81
2021/03/03 10:05:02;;;;;;;71.93;41.10;;;12.50;98.30;;;;;;5174830;22;20465;-81
2021/03/03 10:07:14;;;;;;;45.30;28.83;;;12.80;98.30;;;;;;5174504;22;20515;-82
2021/03/03 10:09:19;;;;;;;37.83;25.00;;;13.00;98.30;;;;;;5175626;22;20543;-82
2021/03/03 10:11:21;;;;;;;36.23;23.37;;;13.20;96.50;;;;;;5175375;22;20475;-82
2021/03/03 10:13:27;;;;;;;38.20;26.93;;;13.30;96.10;;;;;;5173944;22;20436;-82
2021/03/03 10:15:32;;;;;;;36.70;25.77;;;13.50;95.40;;;;;;5176109;22;20448;-82
2021/03/03 10:17:42;;;;;;;35.80;23.30;;;13.70;94.80;;;;;;5175847;22;20451;-82
2021/03/03 10:19:45;;;;;;;36.53;25.03;;;13.90;94.40;;;;;;5175164;23;20439;-82
2021/03/03 10:21:47;;;;;;;33.97;22.70;;;14.00;93.70;;;;;;5175319;22;20447;-83
2021/03/03 10:23:50;;;;;;;35.63;23.40;;;14.20;92.10;;;;;;5176171;22;20482;-83
2021/03/03 10:25:53;;;;;;;33.73;22.67;;;14.30;91.70;;;;;;5175367;22;20451;-83
2021/03/03 10:28:02;;;;;;;37.20;26.27;;;14.40;91.10;;;;;;5176518;22;21130;-83
2021/03/03 10:30:24;;;;;;;33.13;21.87;;;14.10;90.80;;;;;;5175643;22;20443;-83
2021/03/03 10:32:26;;;;;;;30.03;21.17;;;14.30;90.20;;;;;;5177179;22;20450;-82
2021/03/03 10:34:29;;;;;;;31.70;21.30;;;14.20;88.60;;;;;;5177154;22;20450;-83
2021/03/03 10:36:40;;;;;;;27.23;19.80;;;14.00;89.00;;;;;;5177665;23;20444;-83
2021/03/03 10:38:54;;;;;;;31.93;21.10;;;14.00;88.70;;;;;;5176795;22;20443;-83
2021/03/03 10:41:02;;;;;;;33.93;20.43;;;14.00;89.20;;;;;;5176576;22;20443;-82